Time;durP1;ratioP1;P1;durP2;ratioP2;P2;SDS_P1;SDS_P2;PMS_P1;PMS_P2;Temp;Humidity;BMP_temperature;BMP_pressure;BME280_temperature;BME280_humidity;BME280_pressure;Samples;Min_cycle;Max_cycle;Signal;HPM_P1;HPM_P2
2023/03/15 05:44:39;;;;;;;;;;;;;;;4.75;100.00;99653.84;111178;1249;22475;-46
2023/03/15 05:47:25;;;;;;;;;;;;;;;4.81;100.00;99654.95;112897;1249;23199;-57
2023/03/15 05:50:07;;;;;;;;;;;;;;;4.89;100.00;99645.70;111720;1250;22516;-48
2023/03/15 05:52:58;;;;;;;;;;;;;;;4.97;100.00;99640.27;112354;1249;22955;-47
2023/03/15 05:55:35;;;;;;;;;;;;;;;5.03;100.00;99637.06;110813;1250;22605;-58
2023/03/15 05:58:35;;;;;;;;;;;;;;;5.11;100.00;99631.96;111318;1249;22509;-48
2023/03/15 06:01:24;;;;;;;;;;;;;;;5.17;100.00;99620.80;112289;1249;22614;-58
2023/03/15 06:04:00;;;;;;;;;;;;;;;5.21;100.00;99612.55;112647;1249;22453;-46
2023/03/15 06:06:28;;;;;;;;;;;;;;;5.27;100.00;99605.35;111328;1249;22582;-46
2023/03/15 06:08:55;;;;;;;;;;;;;;;5.33;100.00;99601.96;112857;1249;22423;-57
2023/03/15 06:11:22;;;;;;;;;;;;;;;5.40;100.00;99603.23;112680;1249;22383;-46
2023/03/15 06:13:49;;;;;;;;;;;;;;;5.46;100.00;99603.45;112771;1249;22485;-47
2023/03/15 06:16:33;;;;;;;;;;;;;;;5.54;100.00;99596.09;112645;1249;22867;-57
2023/03/15 06:19:02;;;;;;;;;;;;;;;5.62;100.00;99596.86;112367;1250;23311;-46
2023/03/15 06:21:29;;;;;;;;;;;;;;;5.66;100.00;99593.60;111696;1249;22509;-47
2023/03/15 06:23:56;;;;;;;;;;;;;;;5.69;100.00;99596.75;112755;1249;22417;-46
2023/03/15 06:26:23;;;;;;;;;;;;;;;5.73;100.00;99596.26;112024;1249;330555;-46
2023/03/15 06:28:53;;;;;;;;;;;;;;;5.80;100.00;99596.67;111734;1249;22494;-47
2023/03/15 06:31:31;;;;;;;;;;;;;;;5.92;100.00;99592.45;112087;1249;22457;-57
2023/03/15 06:34:03;;;;;;;;;;;;;;;6.01;100.00;99592.36;112164;1249;22488;-58
2023/03/15 06:36:57;;;;;;;;;;;;;;;6.09;100.00;99592.08;111512;1249;23262;-56
2023/03/15 06:40:45;;;;;;;;;;;;;;;6.20;100.00;99595.96;111831;1249;23173;-47
2023/03/15 06:43:43;;;;;;;;;;;;;;;6.29;100.00;99583.20;111483;1249;22454;-57
2023/03/15 06:46:16;;;;;;;;;;;;;;;6.37;100.00;99580.13;112190;1249;22762;-47
2023/03/15 06:56:53;;;;;;;;;;;;;;;6.76;100.00;99582.73;112557;1249;22469;-47
2023/03/15 06:59:20;;;;;;;;;;;;;;;6.87;100.00;99583.83;112662;1249;23118;-49
2023/03/15 07:01:51;;;;;;;;;;;;;;;6.95;100.00;99588.70;112744;1249;22941;-47
2023/03/15 07:04:18;;;;;;;;;;;;;;;7.02;100.00;99586.65;112676;1249;22507;-47
2023/03/15 07:06:46;;;;;;;;;;;;;;;7.07;100.00;99583.72;112196;1249;23173;-47
2023/03/15 07:09:13;;;;;;;;;;;;;;;7.15;100.00;99580.62;111418;1249;22996;-57
2023/03/15 07:11:40;;;;;;;;;;;;;;;7.25;100.00;99586.02;112501;1249;22862;-57
2023/03/15 07:14:10;;;;;;;;;;;;;;;7.31;100.00;99585.51;112188;1249;23038;-49
2023/03/15 07:16:56;;;;;;;;;;;;;;;7.37;100.00;99580.84;112040;1250;23219;-58
2023/03/15 07:19:32;;;;;;;;;;;;;;;7.46;100.00;99578.77;111931;1249;23042;-58
2023/03/15 07:22:02;;;;;;;;;;;;;;;7.53;100.00;99579.81;112478;1249;22389;-60
2023/03/15 07:24:54;;;;;;;;;;;;;;;7.64;100.00;99575.13;112291;1239;22390;-48
2023/03/15 07:27:26;;;;;;;;;;;;;;;7.75;99.94;99582.42;112348;1249;22384;-57
2023/03/15 07:30:29;;;;;;;;;;;;;;;7.78;99.46;99581.92;112282;1249;22824;-56
2023/03/15 07:33:47;;;;;;;;;;;;;;;7.77;98.97;99576.86;112197;1249;22379;-57
2023/03/15 07:36:38;;;;;;;;;;;;;;;7.76;99.06;99577.90;112025;1249;22933;-57
2023/03/15 07:39:35;;;;;;;;;;;;;;;7.79;99.01;99574.96;112566;1249;22793;-57
2023/03/15 07:42:08;;;;;;;;;;;;;;;7.84;98.88;99581.05;112613;1249;22467;-56
2023/03/15 07:45:06;;;;;;;;;;;;;;;7.84;98.60;99585.21;112440;1249;22407;-58
2023/03/15 07:48:28;;;;;;;;;;;;;;;7.79;98.97;99582.61;112256;1249;22960;-65
2023/03/15 07:50:56;;;;;;;;;;;;;;;7.76;99.11;99579.13;112161;1249;22918;-58
2023/03/15 07:53:27;;;;;;;;;;;;;;;7.72;99.42;99576.52;112286;1249;22843;-58
2023/03/15 07:55:54;;;;;;;;;;;;;;;7.68;99.83;99572.70;112415;1249;22425;-57
2023/03/15 07:58:21;;;;;;;;;;;;;;;7.68;99.96;99581.21;112345;1249;22923;-57
2023/03/15 08:00:47;;;;;;;;;;;;;;;7.68;99.99;99575.48;112531;1249;22973;-62
2023/03/15 08:03:14;;;;;;;;;;;;;;;7.67;100.00;99580.52;112603;1249;22413;-58
2023/03/15 08:05:41;;;;;;;;;;;;;;;7.67;100.00;99580.86;112515;1249;22445;-47
2023/03/15 08:08:08;;;;;;;;;;;;;;;7.69;100.00;99579.46;112553;1249;22393;-58
2023/03/15 08:10:35;;;;;;;;;;;;;;;7.73;100.00;99574.45;112547;1249;22386;-47
2023/03/15 08:13:04;;;;;;;;;;;;;;;7.74;100.00;99577.39;112561;1249;22848;-58
2023/03/15 08:15:31;;;;;;;;;;;;;;;7.76;100.00;99575.47;112551;1249;22365;-58
2023/03/15 08:18:08;;;;;;;;;;;;;;;7.76;99.99;99577.55;112638;1249;23063;-47
2023/03/15 08:20:35;;;;;;;;;;;;;;;7.73;100.00;99588.16;112715;1249;22388;-47
2023/03/15 08:23:01;;;;;;;;;;;;;;;7.71;100.00;99587.48;112810;1249;23140;-47
2023/03/15 08:25:28;;;;;;;;;;;;;;;7.69;100.00;99587.11;112840;1249;22381;-58
2023/03/15 08:27:55;;;;;;;;;;;;;;;7.67;100.00;99590.41;112764;1249;22629;-58
2023/03/15 08:30:22;;;;;;;;;;;;;;;7.66;100.00;99591.98;112832;1249;22458;-58
2023/03/15 08:32:51;;;;;;;;;;;;;;;7.63;100.00;99591.79;112404;1249;23196;-47
2023/03/15 08:35:18;;;;;;;;;;;;;;;7.62;100.00;99586.41;112901;1249;22358;-57
2023/03/15 08:37:51;;;;;;;;;;;;;;;7.63;100.00;99589.36;112836;1249;22398;-58
2023/03/15 08:40:24;;;;;;;;;;;;;;;7.67;100.00;99588.67;112838;1249;22835;-47
2023/03/15 08:42:51;;;;;;;;;;;;;;;7.77;100.00;99587.64;112859;1249;22452;-59
2023/03/15 08:45:18;;;;;;;;;;;;;;;7.91;100.00;99585.55;112820;1249;22464;-48
2023/03/15 08:47:46;;;;;;;;;;;;;;;8.03;100.00;99584.49;112761;1249;22715;-59
2023/03/15 08:50:18;;;;;;;;;;;;;;;8.08;99.98;99585.02;112760;1249;22430;-59
2023/03/15 08:52:46;;;;;;;;;;;;;;;8.14;99.86;99589.87;112720;1249;22384;-59
2023/03/15 08:55:13;;;;;;;;;;;;;;;8.19;99.76;99594.03;112747;1249;23123;-59
2023/03/15 08:57:45;;;;;;;;;;;;;;;8.24;99.15;99586.56;112704;1249;23194;-59
2023/03/15 09:00:19;;;;;;;;;;;;;;;8.23;98.44;99588.45;112531;1249;22409;-59
2023/03/15 09:02:50;;;;;;;;;;;;;;;8.23;98.48;99593.49;112763;1249;22366;-48
2023/03/15 09:05:17;;;;;;;;;;;;;;;8.26;98.38;99595.94;112795;1249;22442;-48
2023/03/15 09:07:44;;;;;;;;;;;;;;;8.26;98.00;99593.33;112665;1249;22575;-50
2023/03/15 09:10:16;;;;;;;;;;;;;;;8.25;97.94;99592.29;112734;1249;22364;-49
2023/03/15 09:12:44;;;;;;;;;;;;;;;8.27;97.77;99588.11;112692;1249;23208;-48
2023/03/15 09:15:11;;;;;;;;;;;;;;;8.27;97.90;99589.67;112652;1249;22388;-48
2023/03/15 09:17:38;;;;;;;;;;;;;;;8.28;97.46;99589.66;112668;1249;23117;-48
2023/03/15 09:20:13;;;;;;;;;;;;;;;8.21;96.59;99585.86;112724;1249;22403;-48
2023/03/15 09:22:48;;;;;;;;;;;;;;;8.12;96.61;99592.13;112685;1249;22363;-46
2023/03/15 09:25:15;;;;;;;;;;;;;;;8.07;97.44;99586.40;112733;1249;22358;-48
2023/03/15 09:27:42;;;;;;;;;;;;;;;8.04;97.97;99586.75;112788;1249;22469;-48
2023/03/15 09:30:08;;;;;;;;;;;;;;;8.05;98.15;99582.23;112621;1249;23190;-48
2023/03/15 09:32:36;;;;;;;;;;;;;;;8.04;97.33;99584.32;112713;1249;22844;-58
2023/03/15 09:35:03;;;;;;;;;;;;;;;8.02;97.13;99588.49;112511;1249;22956;-61
2023/03/15 09:37:30;;;;;;;;;;;;;;;7.99;97.15;99591.27;111811;1249;22498;-58
2023/03/15 09:39:58;;;;;;;;;;;;;;;7.96;97.05;99588.32;112096;1249;22443;-47
2023/03/15 09:42:52;;;;;;;;;;;;;;;7.91;97.13;99591.63;112087;1249;22948;-47
2023/03/15 09:45:36;;;;;;;;;;;;;;;7.90;97.28;99591.46;112454;1244;22515;-48
2023/03/15 09:48:07;;;;;;;;;;;;;;;7.92;97.27;99590.40;112583;1249;22950;-48
2023/03/15 09:50:44;;;;;;;;;;;;;;;7.98;97.05;99589.88;112613;1249;22477;-58
2023/03/15 09:53:19;;;;;;;;;;;;;;;8.03;96.40;99591.45;112672;1249;23410;-57
2023/03/15 09:55:58;;;;;;;;;;;;;;;8.02;96.26;99590.92;112256;1249;22742;-46
2023/03/15 09:58:37;;;;;;;;;;;;;;;8.05;96.41;99585.54;112117;1249;22460;-48
2023/03/15 10:01:05;;;;;;;;;;;;;;;8.10;96.04;99588.48;112679;1249;22455;-58
2023/03/15 10:03:35;;;;;;;;;;;;;;;8.16;95.62;99588.64;112669;1249;23181;-58
2023/03/15 10:06:06;;;;;;;;;;;;;;;8.19;95.03;99580.48;112706;1249;22325;-57
2023/03/15 10:08:33;;;;;;;;;;;;;;;8.17;94.59;99578.56;112593;1249;23126;-47
2023/03/15 10:11:26;;;;;;;;;;;;;;;8.14;94.55;99577.70;112523;1250;22485;-58
2023/03/15 10:13:56;;;;;;;;;;;;;;;8.16;94.74;99574.39;112361;1249;22612;-47
2023/03/15 10:16:32;;;;;;;;;;;;;;;8.20;94.51;99566.41;112596;1249;22522;-58
2023/03/15 10:19:16;;;;;;;;;;;;;;;8.22;93.95;99567.10;112543;1249;22759;-58
2023/03/15 10:21:50;;;;;;;;;;;;;;;8.21;93.52;99559.63;112101;1249;22497;-58
2023/03/15 10:24:24;;;;;;;;;;;;;;;8.21;93.55;99561.89;112219;1250;22506;-47
2023/03/15 10:26:51;;;;;;;;;;;;;;;8.30;93.73;99557.35;112805;1249;22373;-48
2023/03/15 10:29:19;;;;;;;;;;;;;;;8.43;93.26;99550.58;112705;1250;22499;-59
2023/03/15 10:31:46;;;;;;;;;;;;;;;8.54;93.01;99548.10;112679;1249;23642;-49
2023/03/15 10:34:13;;;;;;;;;;;;;;;8.62;92.05;99548.93;112477;1249;22541;-46
2023/03/15 10:36:53;;;;;;;;;;;;;;;8.65;91.46;99539.20;112584;1249;22951;-57
2023/03/15 10:39:20;;;;;;;;;;;;;;;8.70;91.33;99543.17;112493;1250;23117;-48
2023/03/15 10:41:59;;;;;;;;;;;;;;;8.74;91.16;99538.63;112110;1249;22398;-46
2023/03/15 10:44:38;;;;;;;;;;;;;;;8.78;90.52;99532.87;112201;1249;22524;-58
2023/03/15 10:47:12;;;;;;;;;;;;;;;8.81;90.24;99535.98;111498;1249;22533;-49
2023/03/15 10:50:08;;;;;;;;;;;;;;;8.85;89.97;99527.96;112523;1250;22411;-47
2023/03/15 10:53:01;;;;;;;;;;;;;;;8.88;89.60;99524.67;112517;1249;23350;-47
2023/03/15 10:55:52;;;;;;;;;;;;;;;8.88;89.02;99517.18;112628;1249;23098;-46
2023/03/15 10:58:46;;;;;;;;;;;;;;;8.86;89.03;99514.73;112605;1249;22521;-46
2023/03/15 11:05:02;;;;;;;;;;;;;;;8.80;88.69;99516.34;112185;1249;23202;-49
2023/03/15 11:07:36;;;;;;;;;;;;;;;8.80;88.97;99513.89;112371;1249;22351;-48
2023/03/15 11:10:04;;;;;;;;;;;;;;;8.79;88.65;99514.08;112394;1250;22841;-49
2023/03/15 11:12:33;;;;;;;;;;;;;;;8.78;88.70;99511.65;111826;1249;22514;-47
2023/03/15 11:15:04;;;;;;;;;;;;;;;8.80;88.96;99509.55;112308;1250;22482;-59
2023/03/15 11:17:32;;;;;;;;;;;;;;;8.85;89.02;99504.16;112122;1249;22496;-58
2023/03/15 11:20:13;;;;;;;;;;;;;;;8.93;88.75;99501.14;112383;1249;22749;-53
2023/03/15 11:22:45;;;;;;;;;;;;;;;9.02;88.57;99494.30;112614;1250;22894;-49
2023/03/15 11:25:15;;;;;;;;;;;;;;;9.11;88.21;99491.11;111665;1249;23317;-47
2023/03/15 11:27:49;;;;;;;;;;;;;;;9.18;87.83;99491.59;112626;1249;22897;-57
2023/03/15 11:30:17;;;;;;;;;;;;;;;9.26;87.17;99488.05;112621;1249;23227;-57
2023/03/15 11:32:46;;;;;;;;;;;;;;;9.31;86.87;99487.66;112682;1249;22753;-47
2023/03/15 11:35:37;;;;;;;;;;;;;;;9.37;86.71;99478.56;112696;1249;23489;-47
2023/03/15 11:38:08;;;;;;;;;;;;;;;9.40;86.21;99481.33;112675;1249;23069;-47
2023/03/15 11:40:42;;;;;;;;;;;;;;;9.39;85.93;99480.28;112617;1249;22416;-57
2023/03/15 11:43:12;;;;;;;;;;;;;;;9.37;86.14;99477.18;112599;1249;22815;-57
2023/03/15 11:45:39;;;;;;;;;;;;;;;9.38;86.42;99480.81;112431;1250;23703;-56
2023/03/15 11:48:35;;;;;;;;;;;;;;;9.40;85.91;99485.33;112689;1250;22968;-57
2023/03/15 11:51:02;;;;;;;;;;;;;;;9.41;85.81;99480.63;112641;1249;23149;-57
2023/03/15 11:53:33;;;;;;;;;;;;;;;9.40;86.05;99483.77;112687;1248;22421;-48
2023/03/15 11:56:24;;;;;;;;;;;;;;;9.45;85.67;99486.86;112691;1249;22727;-58
2023/03/15 11:59:02;;;;;;;;;;;;;;;9.43;85.17;99490.16;112677;1249;22440;-48
2023/03/15 12:01:29;;;;;;;;;;;;;;;9.44;85.27;99492.42;112794;1249;23021;-48
2023/03/15 12:04:15;;;;;;;;;;;;;;;9.48;85.38;99484.73;112831;1249;23626;-48
2023/03/15 12:06:43;;;;;;;;;;;;;;;9.53;84.83;99483.13;112839;1249;22338;-48
2023/03/15 12:09:30;;;;;;;;;;;;;;;9.59;84.27;99484.65;112815;1249;22989;-58
2023/03/15 12:12:04;;;;;;;;;;;;;;;9.63;83.52;99482.52;112722;1250;22402;-58
2023/03/15 12:14:35;;;;;;;;;;;;;;;9.63;83.14;99489.14;112860;1249;22446;-48
2023/03/15 12:17:20;;;;;;;;;;;;;;;9.61;83.35;99489.84;112803;1249;23287;-48
2023/03/15 12:19:47;;;;;;;;;;;;;;;9.61;83.47;99489.66;112807;1249;22381;-58
2023/03/15 12:22:14;;;;;;;;;;;;;;;9.63;83.29;99489.33;112857;1250;22414;-58
2023/03/15 12:24:43;;;;;;;;;;;;;;;9.64;83.13;99487.75;112865;1250;22402;-58
2023/03/15 12:27:14;;;;;;;;;;;;;;;9.62;82.86;99496.11;112896;1249;22403;-48
2023/03/15 12:29:46;;;;;;;;;;;;;;;9.58;83.19;99495.11;112462;1249;22465;-47
2023/03/15 12:32:13;;;;;;;;;;;;;;;9.61;83.42;99487.95;112155;1249;22585;-48
2023/03/15 12:34:49;;;;;;;;;;;;;;;9.65;83.37;99492.61;112610;1249;22474;-58
2023/03/15 12:37:51;;;;;;;;;;;;;;;9.67;83.17;99493.28;112914;1249;22915;-48
2023/03/15 12:40:17;;;;;;;;;;;;;;;9.63;82.83;99492.11;112165;1256;22478;-48
2023/03/15 12:42:51;;;;;;;;;;;;;;;9.58;83.02;99495.45;111420;1255;22558;-57
2023/03/15 12:45:18;;;;;;;;;;;;;;;9.52;83.20;99500.02;112232;1255;23056;-58
2023/03/15 12:47:50;;;;;;;;;;;;;;;9.46;83.62;99497.30;112381;1256;22437;-48
2023/03/15 12:50:35;;;;;;;;;;;;;;;9.44;83.94;99496.60;112390;1256;22446;-47
2023/03/15 12:53:03;;;;;;;;;;;;;;;9.43;83.94;99495.22;112333;1256;23064;-48
2023/03/15 12:55:30;;;;;;;;;;;;;;;9.45;84.00;99495.21;112343;1256;22426;-58
2023/03/15 12:57:58;;;;;;;;;;;;;;;9.47;83.97;99490.84;112346;1256;22404;-48
2023/03/15 13:00:26;;;;;;;;;;;;;;;9.48;83.60;99486.65;112215;1256;22395;-47
2023/03/15 13:03:05;;;;;;;;;;;;;;;9.46;83.76;99484.94;112339;1256;22476;-48
2023/03/15 13:05:36;;;;;;;;;;;;;;;9.45;83.79;99479.89;112343;1256;22492;-48
2023/03/15 13:08:03;;;;;;;;;;;;;;;9.46;83.86;99478.86;111526;1256;22574;-59
